createdAt,value
2018-04-08T00:01:39.572Z,9.80
2018-04-08T00:04:07.028Z,19.30
2018-04-08T00:06:34.475Z,9.00
2018-04-08T00:09:01.967Z,9.83
2018-04-08T00:11:29.372Z,8.93
2018-04-08T00:13:56.805Z,10.00
2018-04-08T00:16:25.013Z,11.20
2018-04-08T00:18:52.445Z,12.93
2018-04-08T00:21:20.669Z,8.47
2018-04-08T00:23:48.134Z,13.37
2018-04-08T00:26:15.548Z,8.87
2018-04-08T00:28:43.042Z,11.60
2018-04-08T00:31:10.486Z,11.17
2018-04-08T00:33:37.952Z,12.10
2018-04-08T00:36:05.394Z,12.80
2018-04-08T00:38:32.844Z,11.90
2018-04-08T00:41:00.324Z,14.50
2018-04-08T00:43:27.760Z,14.77
2018-04-08T00:45:55.247Z,10.30
2018-04-08T00:48:22.709Z,12.93
2018-04-08T00:50:50.144Z,11.90
2018-04-08T00:53:17.589Z,12.70
2018-04-08T00:55:45.069Z,10.67
2018-04-08T00:58:12.496Z,10.37
2018-04-08T01:00:39.988Z,13.17
2018-04-08T01:03:07.444Z,10.03
2018-04-08T01:05:34.872Z,14.17
2018-04-08T01:08:02.324Z,15.90
2018-04-08T01:10:30.518Z,13.67
2018-04-08T01:12:57.965Z,11.63
2018-04-08T01:15:25.440Z,16.10
2018-04-08T01:17:52.876Z,13.73
2018-04-08T01:20:20.304Z,9.63
2018-04-08T01:22:48.520Z,11.27
2018-04-08T01:25:15.959Z,12.03
2018-04-08T01:27:44.155Z,15.43
2018-04-08T01:30:11.622Z,12.83
2018-04-08T01:32:39.169Z,14.87
2018-04-08T01:35:06.587Z,13.75
2018-04-08T01:37:34.800Z,16.20
2018-04-08T01:40:02.237Z,12.57
2018-04-08T01:42:29.746Z,12.63
2018-04-08T01:44:57.280Z,12.00
2018-04-08T01:47:24.716Z,13.40
2018-04-08T01:49:52.148Z,11.83
2018-04-08T01:52:20.372Z,13.70
2018-04-08T01:54:47.802Z,9.50
2018-04-08T01:57:15.291Z,13.20
2018-04-08T01:59:42.737Z,13.77
2018-04-08T02:02:10.213Z,10.27
2018-04-08T02:04:37.647Z,11.37
2018-04-08T02:07:05.093Z,10.10
2018-04-08T02:09:32.516Z,11.43
2018-04-08T02:12:00.713Z,8.47
2018-04-08T02:14:28.160Z,14.70
2018-04-08T02:16:56.352Z,12.40
2018-04-08T02:19:23.930Z,15.37
2018-04-08T02:21:51.368Z,12.30
2018-04-08T02:24:18.809Z,10.17
2018-04-08T02:26:47.015Z,9.47
2018-04-08T02:29:14.460Z,10.63
2018-04-08T02:31:41.893Z,12.47
2018-04-08T02:34:10.113Z,11.80
2018-04-08T02:36:37.584Z,11.43
2018-04-08T02:39:05.038Z,11.90
2018-04-08T02:41:32.497Z,12.33
2018-04-08T02:44:00.049Z,13.63
2018-04-08T02:46:27.516Z,9.30
2018-04-08T02:48:54.942Z,11.87
2018-04-08T02:51:22.430Z,12.10
2018-04-08T02:53:49.916Z,15.53
2018-04-08T02:56:18.149Z,11.60
2018-04-08T02:58:45.609Z,10.73
2018-04-08T03:01:13.067Z,13.97
2018-04-08T03:03:40.504Z,11.10
2018-04-08T03:06:07.979Z,14.67
2018-04-08T03:08:35.437Z,11.50
2018-04-08T03:11:02.872Z,14.47
2018-04-08T03:13:30.322Z,15.07
2018-04-08T03:15:57.768Z,13.60
2018-04-08T03:18:25.960Z,14.53
2018-04-08T03:20:53.401Z,12.90
2018-04-08T03:23:21.596Z,11.37
2018-04-08T03:25:49.037Z,13.40
2018-04-08T03:28:17.344Z,12.77
2018-04-08T03:30:44.781Z,12.80
2018-04-08T03:33:12.213Z,11.10
2018-04-08T03:35:40.450Z,10.70
2018-04-08T03:38:07.892Z,17.77
2018-04-08T03:40:35.368Z,17.03
2018-04-08T03:43:02.808Z,17.17
2018-04-08T03:45:30.240Z,15.40
2018-04-08T03:47:57.676Z,16.00
2018-04-08T03:50:25.886Z,19.47
2018-04-08T03:52:53.321Z,16.40
2018-04-08T03:55:21.518Z,16.63
2018-04-08T03:57:48.982Z,13.17
2018-04-08T04:00:16.396Z,13.60
2018-04-08T04:02:44.606Z,13.67
2018-04-08T04:05:12.086Z,14.57
2018-04-08T04:07:39.504Z,12.47
2018-04-08T04:10:06.940Z,12.23
2018-04-08T04:12:35.152Z,15.57
2018-04-08T04:15:02.585Z,15.07
2018-04-08T04:17:30.783Z,11.97
2018-04-08T04:20:10.255Z,16.27
2018-04-08T04:22:49.671Z,16.67
2018-04-08T04:25:28.880Z,13.03
2018-04-08T04:27:56.306Z,14.17
2018-04-08T04:30:23.905Z,12.07
2018-04-08T04:32:51.341Z,14.30
2018-04-08T04:35:18.812Z,15.10
2018-04-08T04:37:46.275Z,18.17
2018-04-08T04:40:14.570Z,17.47
2018-04-08T04:42:41.996Z,13.43
2018-04-08T04:45:09.440Z,14.10
2018-04-08T04:47:37.763Z,13.17
2018-04-08T04:50:05.189Z,13.30
2018-04-08T04:52:32.615Z,15.33
2018-04-08T04:55:00.134Z,13.40
2018-04-08T04:57:27.556Z,14.73
2018-04-08T04:59:55.748Z,13.00
2018-04-08T05:02:23.247Z,13.73
2018-04-08T05:04:50.688Z,11.63
2018-04-08T05:07:18.139Z,18.27
2018-04-08T05:09:45.563Z,13.47
2018-04-08T05:12:13.756Z,13.23
2018-04-08T05:14:41.185Z,13.33
2018-04-08T05:17:09.417Z,13.90
2018-04-08T05:19:36.866Z,12.50
2018-04-08T05:22:04.429Z,15.90
2018-04-08T05:24:31.902Z,19.37
2018-04-08T05:26:59.342Z,19.77
2018-04-08T05:29:26.777Z,15.57
2018-04-08T05:31:54.221Z,18.27
2018-04-08T05:34:21.712Z,17.53
2018-04-08T05:36:49.149Z,15.50
2018-04-08T05:39:16.625Z,17.40
2018-04-08T05:41:44.058Z,17.00
2018-04-08T05:44:11.556Z,15.40
2018-04-08T05:46:39.004Z,18.23
2018-04-08T05:49:06.449Z,18.73
2018-04-08T05:51:34.007Z,15.30
2018-04-08T05:54:01.440Z,16.13
2018-04-08T05:56:28.881Z,17.70
2018-04-08T05:58:57.087Z,18.00
2018-04-08T06:01:24.545Z,22.67
2018-04-08T06:03:52.055Z,21.47
2018-04-08T06:06:19.456Z,20.47
2018-04-08T06:08:46.933Z,19.77
2018-04-08T06:11:14.397Z,20.77
2018-04-08T06:13:41.849Z,20.57
2018-04-08T06:16:09.296Z,26.53
2018-04-08T06:18:36.736Z,25.97
2018-04-08T06:21:04.193Z,27.53
2018-04-08T06:23:31.677Z,28.83
2018-04-08T06:25:59.112Z,33.93
2018-04-08T06:28:26.545Z,25.80
2018-04-08T06:30:54.765Z,31.77
2018-04-08T06:33:22.212Z,30.20
2018-04-08T06:35:49.662Z,34.57
2018-04-08T06:38:17.105Z,33.13
2018-04-08T06:40:44.548Z,42.80
2018-04-08T06:43:12.756Z,38.97
2018-04-08T06:45:40.197Z,30.27
2018-04-08T06:48:07.633Z,28.97
2018-04-08T06:50:35.828Z,36.23
2018-04-08T06:53:03.310Z,30.23
2018-04-08T06:55:30.741Z,40.73
2018-04-08T06:57:58.632Z,28.93
2018-04-08T07:00:26.074Z,36.23
2018-04-08T07:02:53.556Z,30.40
2018-04-08T07:05:21.058Z,33.57
2018-04-08T07:07:48.472Z,31.00
2018-04-08T07:10:15.916Z,31.07
2018-04-08T07:12:43.359Z,28.50
2018-04-08T07:15:10.802Z,30.30
2018-04-08T07:17:39.004Z,29.23
2018-04-08T07:20:06.445Z,27.30
2018-04-08T07:22:33.884Z,27.53
2018-04-08T07:25:02.102Z,30.40
2018-04-08T07:27:29.568Z,27.30
2018-04-08T07:29:57.038Z,29.20
2018-04-08T07:32:24.473Z,28.10
2018-04-08T07:34:51.933Z,29.07
2018-04-08T07:37:19.383Z,29.13
2018-04-08T07:39:46.827Z,23.90
2018-04-08T07:42:14.253Z,26.03
2018-04-08T07:44:42.468Z,28.93
2018-04-08T07:47:09.931Z,28.90
2018-04-08T07:49:37.377Z,29.67
2018-04-08T07:52:04.856Z,25.90
2018-04-08T07:54:32.291Z,26.30
2018-04-08T07:56:59.740Z,26.50
2018-04-08T07:59:27.222Z,27.57
2018-04-08T08:01:54.660Z,33.83
2018-04-08T08:04:22.205Z,28.50
2018-04-08T08:06:50.408Z,29.30
2018-04-08T08:09:17.854Z,30.20
2018-04-08T08:11:45.294Z,23.40
2018-04-08T08:14:12.736Z,26.50
2018-04-08T08:16:40.938Z,26.73
2018-04-08T08:19:08.410Z,28.40
2018-04-08T08:21:35.861Z,26.80
2018-04-08T08:24:03.294Z,27.37
2018-04-08T08:26:30.837Z,25.87
2018-04-08T08:28:59.059Z,24.47
2018-04-08T08:31:26.502Z,26.90
2018-04-08T08:33:53.976Z,27.47
2018-04-08T08:36:21.426Z,26.10
2018-04-08T08:38:48.869Z,25.17
2018-04-08T08:41:16.355Z,24.63
2018-04-08T08:43:43.871Z,25.87
2018-04-08T08:46:11.279Z,22.20
2018-04-08T08:48:38.829Z,24.13
2018-04-08T08:51:06.382Z,29.98
2018-04-08T08:53:33.825Z,22.93
2018-04-08T08:56:01.282Z,21.47
2018-04-08T08:58:28.745Z,26.17
2018-04-08T09:00:56.176Z,31.43
2018-04-08T09:03:23.693Z,24.27
2018-04-08T09:05:51.144Z,27.40
2018-04-08T09:08:18.595Z,27.93
2018-04-08T09:10:46.042Z,26.20
2018-04-08T09:13:13.551Z,24.17
2018-04-08T09:15:41.030Z,25.73
2018-04-08T09:18:08.512Z,26.83
2018-04-08T09:20:36.724Z,24.97
2018-04-08T09:23:09.764Z,24.47
2018-04-08T09:25:39.745Z,20.77
2018-04-08T09:28:07.961Z,22.50
2018-04-08T09:30:35.396Z,22.37
2018-04-08T09:33:02.880Z,21.50
2018-04-08T09:35:30.340Z,26.53
2018-04-08T09:37:57.780Z,19.80
2018-04-08T09:40:25.261Z,21.40
2018-04-08T09:42:52.712Z,22.13
2018-04-08T09:45:20.174Z,31.63
2018-04-08T09:47:47.613Z,27.40
2018-04-08T09:50:15.073Z,29.97
2018-04-08T09:52:42.498Z,22.93
2018-04-08T09:55:10.760Z,21.73
2018-04-08T09:57:43.111Z,26.83
2018-04-08T10:00:16.224Z,25.33
2018-04-08T10:02:44.433Z,23.63
2018-04-08T10:05:11.877Z,18.33
2018-04-08T10:07:39.469Z,22.57
2018-04-08T10:10:06.910Z,24.73
2018-04-08T10:12:34.342Z,19.12
2018-04-08T10:15:02.621Z,26.50
2018-04-08T10:17:30.844Z,18.58
2018-04-08T10:19:58.301Z,18.08
2018-04-08T10:22:25.750Z,21.35
2018-04-08T10:24:53.238Z,19.42
2018-04-08T10:27:20.662Z,21.20
2018-04-08T10:29:48.133Z,19.30
2018-04-08T10:32:15.552Z,21.77
2018-04-08T10:34:43.009Z,19.42
2018-04-08T10:37:10.509Z,20.25
2018-04-08T10:39:37.940Z,18.30
2018-04-08T10:42:05.415Z,21.58
2018-04-08T10:44:32.885Z,21.12
2018-04-08T10:47:00.330Z,18.67
2018-04-08T10:49:27.781Z,15.98
2018-04-08T10:51:55.233Z,17.23
2018-04-08T10:54:22.664Z,13.95
2018-04-08T10:56:50.112Z,14.35
2018-04-08T10:59:18.341Z,10.88
2018-04-08T11:01:45.772Z,15.82
2018-04-08T11:04:13.211Z,14.63
2018-04-08T11:06:40.662Z,18.62
2018-04-08T11:09:08.140Z,18.65
2018-04-08T11:11:35.565Z,20.83
2018-04-08T11:14:03.803Z,21.50
2018-04-08T11:16:31.246Z,20.67
2018-04-08T11:18:58.703Z,20.30
2018-04-08T11:21:26.160Z,20.95
2018-04-08T11:23:53.597Z,16.27
2018-04-08T11:26:21.039Z,15.82
2018-04-08T11:28:48.544Z,19.37
2018-04-08T11:31:15.997Z,20.55
2018-04-08T11:33:43.433Z,23.50
2018-04-08T11:36:10.898Z,18.52
2018-04-08T11:38:38.341Z,21.87
2018-04-08T11:41:05.830Z,22.55
2018-04-08T11:43:33.493Z,19.45
2018-04-08T11:46:01.037Z,21.60
2018-04-08T11:48:28.506Z,19.80
2018-04-08T11:50:55.969Z,22.50
2018-04-08T11:53:23.513Z,25.75
2018-04-08T11:55:50.957Z,18.15
2018-04-08T11:58:18.412Z,18.48
2018-04-08T12:00:45.904Z,23.77
2018-04-08T12:03:13.312Z,23.00
2018-04-08T12:05:40.802Z,17.50
2018-04-08T12:08:08.258Z,20.45
2018-04-08T12:10:35.717Z,21.48
2018-04-08T12:13:03.254Z,22.48
2018-04-08T12:15:30.684Z,21.90
2018-04-08T12:17:58.908Z,23.00
2018-04-08T12:20:26.381Z,24.73
2018-04-08T12:22:53.826Z,22.23
2018-04-08T12:25:21.272Z,21.95
2018-04-08T12:27:48.760Z,21.20
2018-04-08T12:30:16.200Z,25.02
2018-04-08T12:32:43.681Z,22.35
2018-04-08T12:35:11.150Z,22.27
2018-04-08T12:37:39.354Z,24.70
2018-04-08T12:40:06.840Z,23.80
2018-04-08T12:42:34.311Z,20.40
2018-04-08T12:45:01.752Z,25.98
2018-04-08T12:47:29.205Z,25.70
2018-04-08T12:49:56.661Z,24.52
2018-04-08T12:52:24.146Z,30.40
2018-04-08T12:54:51.572Z,27.05
2018-04-08T12:57:19.055Z,17.75
2018-04-08T12:59:46.501Z,21.40
2018-04-08T13:02:13.943Z,21.92
2018-04-08T13:04:41.393Z,21.33
2018-04-08T13:07:08.838Z,21.15
2018-04-08T13:09:36.269Z,22.58
2018-04-08T13:12:04.476Z,18.65
2018-04-08T13:14:31.953Z,19.52
2018-04-08T13:16:59.421Z,19.02
2018-04-08T13:19:26.866Z,22.62
2018-04-08T13:21:54.311Z,22.70
2018-04-08T13:24:21.760Z,20.42
2018-04-08T13:26:49.253Z,16.20
2018-04-08T13:29:16.705Z,22.75
2018-04-08T13:31:44.175Z,20.10
2018-04-08T13:34:11.633Z,22.50
2018-04-08T13:36:39.105Z,24.90
2018-04-08T13:39:08.055Z,23.30
2018-04-08T13:41:35.508Z,19.62
2018-04-08T13:44:02.957Z,22.83
2018-04-08T13:46:30.441Z,25.77
2018-04-08T13:48:58.010Z,19.58
2018-04-08T13:51:25.452Z,20.55
2018-04-08T13:53:52.917Z,24.92
2018-04-08T13:56:20.488Z,17.87
2018-04-08T13:58:47.941Z,17.20
2018-04-08T14:01:15.445Z,22.75
2018-04-08T14:03:42.932Z,27.70
2018-04-08T14:06:10.345Z,18.83
2018-04-08T14:08:38.564Z,19.20
2018-04-08T14:11:06.037Z,19.00
2018-04-08T14:13:33.496Z,24.37
2018-04-08T14:16:00.937Z,27.98
2018-04-08T14:18:28.413Z,22.13
2018-04-08T14:20:55.970Z,27.37
2018-04-08T14:23:23.411Z,18.67
2018-04-08T14:25:50.867Z,21.90
2018-04-08T14:28:18.304Z,23.10
2018-04-08T14:30:45.800Z,23.20
2018-04-08T14:33:13.257Z,19.17
2018-04-08T14:35:40.786Z,19.87
2018-04-08T14:38:08.201Z,14.98
2018-04-08T14:40:35.644Z,24.80
2018-04-08T14:43:03.124Z,19.40
2018-04-08T14:45:30.545Z,26.02
2018-04-08T14:47:58.000Z,21.33
2018-04-08T14:50:25.451Z,24.17
2018-04-08T14:52:52.897Z,18.60
2018-04-08T14:55:20.361Z,21.83
2018-04-08T14:57:47.800Z,25.10
2018-04-08T15:00:16.992Z,20.50
2018-04-08T15:02:44.448Z,21.52
2018-04-08T15:05:11.880Z,23.17
2018-04-08T15:07:40.109Z,26.20
2018-04-08T15:10:07.572Z,31.00
2018-04-08T15:12:35.015Z,18.67
2018-04-08T15:15:02.467Z,14.38
2018-04-08T15:17:29.948Z,13.43
2018-04-08T15:19:57.386Z,13.68
2018-04-08T15:22:24.842Z,14.25
2018-04-08T15:24:52.310Z,11.20
2018-04-08T15:27:21.988Z,9.75
2018-04-08T15:29:50.285Z,9.98
2018-04-08T15:32:17.777Z,17.67
2018-04-08T15:34:45.213Z,16.95
2018-04-08T15:37:12.685Z,13.52
2018-04-08T15:39:40.238Z,14.02
2018-04-08T15:42:07.684Z,12.60
2018-04-08T15:44:35.093Z,12.13
2018-04-08T15:47:03.331Z,10.35
2018-04-08T15:49:30.772Z,16.08
2018-04-08T15:51:58.204Z,10.35
2018-04-08T15:54:25.645Z,15.55
2018-04-08T15:56:53.873Z,15.73
2018-04-08T15:59:21.310Z,17.37
2018-04-08T16:01:48.778Z,17.60
2018-04-08T16:04:16.227Z,18.02
2018-04-08T16:06:43.852Z,17.95
2018-04-08T16:09:12.194Z,16.02
2018-04-08T16:11:39.754Z,17.48
2018-04-08T16:14:07.194Z,18.50
2018-04-08T16:16:34.657Z,18.02
2018-04-08T16:19:02.102Z,15.38
2018-04-08T16:21:29.595Z,18.67
2018-04-08T16:23:57.048Z,22.62
2018-04-08T16:26:24.492Z,21.77
2018-04-08T16:28:52.034Z,22.30
2018-04-08T16:31:19.489Z,19.95
2018-04-08T16:33:46.912Z,32.35
2018-04-08T16:36:14.350Z,23.23
2018-04-08T16:38:42.585Z,24.20
2018-04-08T16:41:10.026Z,19.73
2018-04-08T16:43:37.464Z,18.20
2018-04-08T16:46:04.938Z,21.43
2018-04-08T16:48:32.374Z,21.23
2018-04-08T16:50:59.877Z,20.27
2018-04-08T16:53:27.437Z,19.77
2018-04-08T16:55:54.872Z,19.25
2018-04-08T16:58:22.341Z,20.17
2018-04-08T17:00:49.824Z,17.90
2018-04-08T17:03:17.271Z,17.23
2018-04-08T17:05:44.729Z,18.20
2018-04-08T17:08:12.182Z,22.65
2018-04-08T17:10:39.625Z,25.33
2018-04-08T17:13:07.088Z,20.42
2018-04-08T17:15:34.541Z,18.55
2018-04-08T17:18:01.984Z,17.73
2018-04-08T17:20:29.413Z,17.08
2018-04-08T17:22:57.637Z,19.65
2018-04-08T17:25:25.081Z,19.58
2018-04-08T17:27:52.537Z,20.83
2018-04-08T17:30:20.006Z,18.05
2018-04-08T17:32:47.467Z,22.17
2018-04-08T17:35:14.907Z,21.85
2018-04-08T17:37:42.349Z,20.48
2018-04-08T17:40:09.819Z,20.42
2018-04-08T17:42:37.271Z,25.67
2018-04-08T17:45:04.721Z,19.20
2018-04-08T17:47:32.159Z,19.52
2018-04-08T17:50:01.305Z,20.17
2018-04-08T17:52:28.791Z,24.27
2018-04-08T17:54:56.238Z,21.73
2018-04-08T17:57:23.701Z,24.77
2018-04-08T17:59:51.179Z,33.00
2018-04-08T18:02:19.376Z,24.23
2018-04-08T18:04:46.815Z,29.85
2018-04-08T18:07:15.040Z,27.48
2018-04-08T18:09:42.481Z,31.27
2018-04-08T18:12:09.937Z,30.33
2018-04-08T18:14:37.396Z,29.90
2018-04-08T18:17:04.874Z,27.20
2018-04-08T18:19:32.314Z,31.47
2018-04-08T18:21:59.778Z,24.95
2018-04-08T18:24:27.270Z,33.15
2018-04-08T18:26:55.518Z,34.57
2018-04-08T18:29:23.130Z,31.00
2018-04-08T18:31:51.344Z,34.07
2018-04-08T18:34:18.797Z,36.73
2018-04-08T18:36:46.254Z,33.20
2018-04-08T18:39:13.682Z,31.57
2018-04-08T18:41:41.180Z,32.40
2018-04-08T18:44:08.631Z,37.27
2018-04-08T18:46:36.083Z,35.10
2018-04-08T18:49:03.577Z,37.23
2018-04-08T18:51:31.118Z,44.63
2018-04-08T18:53:58.588Z,41.30
2018-04-08T18:56:26.025Z,43.78
2018-04-08T18:58:53.476Z,44.03
2018-04-08T19:01:20.913Z,46.13
2018-04-08T19:03:48.345Z,38.97
2018-04-08T19:06:16.571Z,38.37
2018-04-08T19:08:44.001Z,39.13
2018-04-08T19:11:11.502Z,46.37
2018-04-08T19:13:38.957Z,43.13
2018-04-08T19:16:06.512Z,51.22
2018-04-08T19:18:33.944Z,41.67
2018-04-08T19:21:01.409Z,46.63
2018-04-08T19:23:28.824Z,42.47
2018-04-08T19:25:57.029Z,45.13
2018-04-08T19:28:24.508Z,45.40
2018-04-08T19:30:51.948Z,45.93
2018-04-08T19:33:19.417Z,46.67
2018-04-08T19:35:46.869Z,55.63
2018-04-08T19:38:14.358Z,47.57
2018-04-08T19:40:41.857Z,48.23
2018-04-08T19:43:09.379Z,50.83
2018-04-08T19:45:36.873Z,48.27
2018-04-08T19:48:04.304Z,51.47
2018-04-08T19:50:31.816Z,55.43
2018-04-08T19:52:59.276Z,46.93
2018-04-08T19:55:26.716Z,47.70
2018-04-08T19:57:55.035Z,50.07
2018-04-08T20:00:22.494Z,49.57
2018-04-08T20:02:49.957Z,53.77
2018-04-08T20:05:18.216Z,52.43
2018-04-08T20:07:45.649Z,50.17
2018-04-08T20:10:13.089Z,54.27
2018-04-08T20:12:40.523Z,56.87
2018-04-08T20:15:08.761Z,57.65
2018-04-08T20:17:36.216Z,56.67
2018-04-08T20:20:03.790Z,54.70
2018-04-08T20:22:31.244Z,56.40
2018-04-08T20:24:58.701Z,55.27
2018-04-08T20:27:26.261Z,50.50
2018-04-08T20:29:53.723Z,56.40
2018-04-08T20:32:21.182Z,59.20
2018-04-08T20:34:48.625Z,54.47
2018-04-08T20:37:16.092Z,58.50
2018-04-08T20:39:43.532Z,57.33
2018-04-08T20:42:10.973Z,57.40
2018-04-08T20:44:38.416Z,51.73
2018-04-08T20:47:05.847Z,63.00
2018-04-08T20:49:34.080Z,61.80
2018-04-08T20:52:01.508Z,63.33
2018-04-08T20:54:28.941Z,56.93
2018-04-08T20:56:56.407Z,62.73
2018-04-08T20:59:24.648Z,61.17
2018-04-08T21:01:52.114Z,56.60
2018-04-08T21:04:19.560Z,58.77
2018-04-08T21:06:47.821Z,55.27
2018-04-08T21:09:15.257Z,59.07
2018-04-08T21:11:42.705Z,63.25
2018-04-08T21:14:10.150Z,57.83
2018-04-08T21:16:38.355Z,60.08
2018-04-08T21:19:05.800Z,62.33
2018-04-08T21:21:33.236Z,60.67
2018-04-08T21:24:01.452Z,52.83
2018-04-08T21:26:28.896Z,55.77
2018-04-08T21:28:56.356Z,62.27
2018-04-08T21:31:23.824Z,58.90
2018-04-08T21:33:51.280Z,56.63
2018-04-08T21:36:18.718Z,55.77
2018-04-08T21:38:49.846Z,56.63
2018-04-08T21:41:17.288Z,56.70
2018-04-08T21:43:45.494Z,62.13
2018-04-08T21:46:12.932Z,62.33
2018-04-08T21:48:40.376Z,60.27
2018-04-08T21:51:08.584Z,59.50
2018-04-08T21:53:36.018Z,63.33
2018-04-08T21:56:03.500Z,63.00
2018-04-08T21:58:30.956Z,57.20
2018-04-08T22:00:58.420Z,61.70
2018-04-08T22:03:25.972Z,63.27
2018-04-08T22:05:53.388Z,66.67
2018-04-08T22:08:21.601Z,61.10
2018-04-08T22:10:49.072Z,64.63
2018-04-08T22:13:16.528Z,64.77
2018-04-08T22:15:43.988Z,59.43
2018-04-08T22:18:11.441Z,64.07
2018-04-08T22:20:38.905Z,55.93
2018-04-08T22:23:06.328Z,68.22
2018-04-08T22:25:33.807Z,62.90
2018-04-08T22:28:01.277Z,64.60
2018-04-08T22:30:28.714Z,63.27
2018-04-08T22:32:56.153Z,60.63
2018-04-08T22:35:23.609Z,60.03
2018-04-08T22:37:51.050Z,59.43
2018-04-08T22:40:19.277Z,56.53
2018-04-08T22:42:46.732Z,64.20
2018-04-08T22:45:14.172Z,66.53
2018-04-08T22:47:41.645Z,71.00
2018-04-08T22:50:09.084Z,58.87
2018-04-08T22:52:36.515Z,59.37
2018-04-08T22:55:04.878Z,58.27
2018-04-08T22:57:32.316Z,62.33
2018-04-08T22:59:59.752Z,70.33
2018-04-08T23:02:27.209Z,59.33
2018-04-08T23:04:54.745Z,64.53
2018-04-08T23:07:22.933Z,62.07
2018-04-08T23:09:50.542Z,62.37
2018-04-08T23:12:17.975Z,60.77
2018-04-08T23:14:45.421Z,72.83
2018-04-08T23:17:12.864Z,66.00
2018-04-08T23:19:40.302Z,69.67
2018-04-08T23:22:07.748Z,65.73
2018-04-08T23:24:35.970Z,63.93
2018-04-08T23:27:03.420Z,66.00
2018-04-08T23:29:30.855Z,65.87
2018-04-08T23:31:58.304Z,61.03
2018-04-08T23:34:25.755Z,70.30
2018-04-08T23:36:53.964Z,70.17
2018-04-08T23:39:21.412Z,66.05
2018-04-08T23:41:48.852Z,69.97
2018-04-08T23:44:16.292Z,65.87
2018-04-08T23:46:44.516Z,60.17
2018-04-08T23:49:11.948Z,64.03
2018-04-08T23:51:39.380Z,63.87
2018-04-08T23:54:07.586Z,70.40
2018-04-08T23:56:35.030Z,72.13
2018-04-08T23:59:02.462Z,67.20
